La Follette, TN (37729)

8:58 AM EDT on May 23, 2015 (GMT -0400)
RAWS | | Change Station
CLOSE
Current Station
Personal Weather Station
Location: Sharps Chapel, TN
Elevation: 1657 ft
Nearby Weather Stations

Elev 1657 ft 36.37 °N, 83.90 °W | Updated 53 minutes ago

Partly Cloudy
Partly Cloudy
55 °F
Feels Like 55 °F
N
2
Wind Variable Wind from NNE
Gusts 3.0 mph

Today
High -- | Low -- °F
--% Chance of Precip.
Yesterday
High -- | Low -- °F
Precip. -- in
6:23 AM 8:42 PM
Waxing Crescent, 29% visible
Pressure 30.44 in
Visibility 10.0 miles
Clouds Clear
Dew Point 45 °F
Humidity 70%
Rainfall in
Snow Depth Not available.
UV 2 out of 12
Pollen 7.40 out of 12
Air Quality Not available.
Flu Activity Sporadic
METAR K1A6 231235Z AUTO 00000KT 10SM CLR 10/09 A3044 RMK AO2 T01020087

More Conditions Fewer Conditions

Pressure 30.44 in
Visibility 10.0 miles
Clouds Clear
Dew Point 45 °F
Humidity 70%
Rainfall in
Snow Depth Not available.
UV 2 out of 12
Pollen 7.40 out of 12
Air Quality Not available.
Flu Activity Sporadic
METAR K1A6 231235Z AUTO 00000KT 10SM CLR 10/09 A3044 RMK AO2 T01020087

More Conditions Fewer Conditions

10-Day Weather Forecast

Almanac

Astronomy

May. 23, 2015 Rise Set
Actual Time
Civil Twilight
Nautical Twilight
Astronomical Twilight
Moon
Length of Visible Light
Length of Day
Tomorrow will be .
, % of the Moon is Illuminated

Today's Extremes

State Highs State Lows

Community

WunderPhotos

Upload Photos

1,823,442 photos uploaded!

WunderBlogs® & News

Nearby

Air Quality

  Air Quality AQ Index Pollutant
Not available.

Snow Depth

Station Depth Elevation

Earthquake Activity

City Distance Mag. Time & Date
Minimum magnitude displayed is 2.5.

Coastal Water Temperatures

Place Temperature

Stations

Nearby Weather Stations

Station Location Temp. Windchill Dew Point Humidity Wind Precip. Elev Updated Type